Time;durP1;ratioP1;P1;durP2;ratioP2;P2;SDS_P1;SDS_P2;PMS_P1;PMS_P2;Temp;Humidity;BMP_temperature;BMP_pressure;BME280_temperature;BME280_humidity;BME280_pressure;Samples;Min_cycle;Max_cycle;Signal;HPM_P1;HPM_P2
2024/01/11 00:00:25;;;;;;;45.33;25.83;;;;;;;-4.82;71.98;101514.41;2568416;28;20474;-80
2024/01/11 00:01:39;;;;;;;42.47;26.23;;;;;;;-4.86;72.01;101515.84;2568735;28;20310;-80
2024/01/11 00:02:53;;;;;;;45.70;26.97;;;;;;;-4.90;72.02;101510.47;2566847;28;20047;-79
2024/01/11 00:04:07;;;;;;;47.80;27.57;;;;;;;-4.93;72.29;101515.31;2559289;28;20312;-79
2024/01/11 00:05:21;;;;;;;42.67;24.77;;;;;;;-4.96;72.09;101512.59;2567618;28;20048;-79
2024/01/11 00:06:41;;;;;;;47.27;29.27;;;;;;;-4.99;72.28;101513.25;2561001;28;20713;-79
2024/01/11 00:07:54;;;;;;;49.93;28.60;;;;;;;-5.01;72.37;101509.72;2557573;28;20040;-79
2024/01/11 00:09:09;;;;;;;41.77;24.83;;;;;;;-5.02;72.51;101505.41;2568089;28;20302;-80
2024/01/11 00:10:22;;;;;;;43.53;26.53;;;;;;;-5.03;72.28;101513.84;2568265;28;20048;-80
2024/01/11 00:11:37;;;;;;;51.27;26.60;;;;;;;-5.06;72.16;101518.69;2567763;28;20284;-80
2024/01/11 00:12:51;;;;;;;48.20;27.03;;;;;;;-5.06;72.57;101513.63;2566455;28;20550;-80
2024/01/11 00:14:06;;;;;;;43.67;29.00;;;;;;;-5.07;72.68;101515.28;2565645;28;20308;-81
2024/01/11 00:15:19;;;;;;;47.03;27.70;;;;;;;-5.09;72.34;101509.19;2558626;28;20290;-80
2024/01/11 00:16:34;;;;;;;50.53;28.57;;;;;;;-5.09;72.41;101510.88;2563013;28;20730;-80
2024/01/11 00:17:47;;;;;;;43.97;26.60;;;;;;;-5.11;72.58;101510.78;2567960;28;20043;-81
2024/01/11 00:19:02;;;;;;;45.63;27.13;;;;;;;-5.11;72.27;101512.41;2557364;28;20839;-80
2024/01/11 00:20:15;;;;;;;41.10;26.70;;;;;;;-5.13;72.46;101516.53;2558241;28;20044;-80
2024/01/11 00:21:29;;;;;;;45.00;29.60;;;;;;;-5.14;72.47;101518.19;2561390;28;20328;-79
2024/01/11 00:22:43;;;;;;;47.63;27.20;;;;;;;-5.15;72.65;101518.97;2564753;28;20047;-80
2024/01/11 00:23:57;;;;;;;51.57;28.63;;;;;;;-5.16;72.58;101511.22;2559147;28;20333;-80
2024/01/11 00:25:11;;;;;;;50.27;27.23;;;;;;;-5.18;72.58;101508.59;2568593;28;20056;-80
2024/01/11 00:26:25;;;;;;;47.93;28.37;;;;;;;-5.19;72.61;101513.56;2567313;28;20310;-80
2024/01/11 00:27:39;;;;;;;59.17;28.30;;;;;;;-5.21;72.70;101517.66;2559516;28;20059;-80
2024/01/11 00:28:54;;;;;;;45.67;27.20;;;;;;;-5.23;72.55;101509.94;2565425;28;20305;-80
2024/01/11 00:30:08;;;;;;;46.50;31.33;;;;;;;-5.23;72.78;101503.97;2567609;28;20051;-80
2024/01/11 00:31:23;;;;;;;44.77;28.07;;;;;;;-5.26;72.94;101517.38;2565652;28;20636;-81
2024/01/11 00:32:36;;;;;;;52.60;28.27;;;;;;;-5.27;72.57;101515.59;2560787;28;20659;-80
2024/01/11 00:33:50;;;;;;;52.00;29.50;;;;;;;-5.28;72.99;101512.16;2564903;28;20305;-80
2024/01/11 00:35:05;;;;;;;49.17;28.37;;;;;;;-5.29;72.68;101518.03;2558329;28;20056;-81
2024/01/11 00:36:20;;;;;;;47.23;26.83;;;;;;;-5.29;72.77;101514.63;2566442;28;20384;-80
2024/01/11 00:37:34;;;;;;;44.70;28.57;;;;;;;-5.31;72.74;101514.50;2567356;28;20308;-80
2024/01/11 00:38:48;;;;;;;47.03;27.73;;;;;;;-5.30;73.12;101510.28;2557644;28;20306;-80
2024/01/11 00:40:02;;;;;;;50.47;27.57;;;;;;;-5.31;72.78;101511.94;2565568;28;20047;-80
2024/01/11 00:41:17;;;;;;;49.20;28.83;;;;;;;-5.30;72.85;101512.84;2565614;28;20302;-80
2024/01/11 00:42:30;;;;;;;47.50;30.53;;;;;;;-5.30;72.98;101512.84;2565020;28;20098;-81
2024/01/11 00:43:44;;;;;;;45.20;29.40;;;;;;;-5.30;73.07;101523.00;2564725;28;20300;-81
2024/01/11 00:44:59;;;;;;;43.40;26.87;;;;;;;-5.32;72.91;101511.84;2564616;28;20063;-81
2024/01/11 00:46:14;;;;;;;49.90;28.03;;;;;;;-5.33;72.91;101521.13;2558515;28;20358;-81
2024/01/11 00:47:27;;;;;;;40.87;27.47;;;;;;;-5.34;72.81;101511.75;2564941;28;20290;-81
2024/01/11 00:48:41;;;;;;;46.77;27.97;;;;;;;-5.34;73.11;101515.97;2565190;28;20302;-81
2024/01/11 00:49:55;;;;;;;52.30;24.73;;;;;;;-5.35;73.15;101514.16;2565056;28;20056;-82
2024/01/11 00:51:09;;;;;;;47.97;28.10;;;;;;;-5.35;72.88;101516.72;2562879;28;20734;-80
2024/01/11 00:52:23;;;;;;;46.93;27.77;;;;;;;-5.36;73.04;101512.41;2555190;28;20052;-81
2024/01/11 00:53:37;;;;;;;44.57;25.83;;;;;;;-5.36;73.04;101512.41;2561816;28;20286;-82
2024/01/11 00:54:50;;;;;;;48.10;27.30;;;;;;;-5.37;72.96;101514.09;2556711;28;20044;-82
2024/01/11 00:56:05;;;;;;;53.60;30.67;;;;;;;-5.36;72.94;101517.50;2565315;28;20413;-81
2024/01/11 00:57:18;;;;;;;51.97;25.53;;;;;;;-5.37;73.37;101511.53;2561471;28;20041;-81
2024/01/11 00:58:33;;;;;;;48.23;26.90;;;;;;;-5.37;73.06;101515.72;2555532;28;20302;-80
2024/01/11 00:59:46;;;;;;;49.07;28.60;;;;;;;-5.37;73.23;101521.72;2554405;28;20041;-81
2024/01/11 01:01:02;;;;;;;54.17;29.80;;;;;;;-5.36;73.26;101517.50;2564045;28;20310;-81
2024/01/11 01:02:16;;;;;;;54.10;31.33;;;;;;;-5.37;73.03;101521.72;2562231;28;20051;-81
2024/01/11 01:03:30;;;;;;;50.23;29.83;;;;;;;-5.38;73.08;101519.06;2554522;28;20314;-81
2024/01/11 01:04:43;;;;;;;46.60;24.73;;;;;;;-5.40;73.30;101521.47;2555197;28;20486;-81
2024/01/11 01:05:58;;;;;;;51.43;29.77;;;;;;;-5.40;73.22;101516.38;2554997;28;20310;-81
2024/01/11 01:07:11;;;;;;;48.10;25.40;;;;;;;-5.41;73.22;101524.81;2555795;28;20051;-82
2024/01/11 01:08:25;;;;;;;47.13;27.93;;;;;;;-5.42;73.48;101517.97;2561298;28;20320;-81
2024/01/11 01:09:39;;;;;;;47.47;30.70;;;;;;;-5.41;73.33;101517.19;2567409;28;20051;-81
2024/01/11 01:10:53;;;;;;;35.70;24.33;;;;;;;-5.41;73.43;101517.19;2557412;28;20320;-81
2024/01/11 01:12:07;;;;;;;42.43;26.70;;;;;;;-5.41;73.25;101514.63;2556469;28;20048;-81
2024/01/11 01:13:21;;;;;;;48.30;30.17;;;;;;;-5.41;73.49;101516.31;2556431;28;20753;-82
2024/01/11 01:14:35;;;;;;;53.37;29.67;;;;;;;-5.42;73.26;101512.88;2556859;28;20566;-81
2024/01/11 01:15:49;;;;;;;49.63;28.40;;;;;;;-5.42;73.23;101522.16;2564127;28;20278;-82
2024/01/11 01:17:05;;;;;;;50.17;30.00;;;;;;;-5.43;73.53;101508.56;2559250;28;20051;-82
2024/01/11 01:18:19;;;;;;;45.00;27.03;;;;;;;-5.44;73.38;101514.44;2568688;28;20335;-82
2024/01/11 01:19:33;;;;;;;48.50;25.27;;;;;;;-5.44;73.45;101504.25;2562080;28;20349;-82
2024/01/11 01:20:47;;;;;;;54.40;29.47;;;;;;;-5.45;73.69;101504.13;2566055;28;20374;-81
2024/01/11 01:22:01;;;;;;;56.63;29.40;;;;;;;-5.44;73.44;101513.56;2567202;28;20055;-82
2024/01/11 01:23:15;;;;;;;48.77;28.80;;;;;;;-5.45;73.51;101514.31;2560465;28;20282;-82
2024/01/11 01:24:28;;;;;;;54.83;28.43;;;;;;;-5.46;73.58;101510.88;2568148;28;20048;-81
2024/01/11 01:25:43;;;;;;;48.33;25.10;;;;;;;-5.46;73.57;101507.47;2568631;28;20310;-82
2024/01/11 01:26:56;;;;;;;48.77;27.73;;;;;;;-5.48;73.51;101514.97;2567824;28;20048;-82
2024/01/11 01:28:11;;;;;;;44.50;24.00;;;;;;;-5.49;73.84;101516.66;2569163;28;20318;-82
2024/01/11 01:29:24;;;;;;;43.43;23.00;;;;;;;-5.49;73.59;101521.72;2567441;28;20425;-82
2024/01/11 01:30:38;;;;;;;41.13;25.87;;;;;;;-5.49;73.65;101518.31;2568723;28;20306;-81
2024/01/11 01:31:52;;;;;;;40.90;26.53;;;;;;;-5.50;73.71;101519.06;2567966;28;20123;-82
2024/01/11 01:33:08;;;;;;;46.93;25.13;;;;;;;-5.50;73.88;101519.06;2568886;28;20312;-81
2024/01/11 01:34:21;;;;;;;49.47;29.40;;;;;;;-5.51;73.79;101518.19;2567689;28;20044;-81
2024/01/11 01:35:36;;;;;;;47.47;26.73;;;;;;;-5.52;73.97;101524.06;2567968;28;20300;-81
2024/01/11 01:36:50;;;;;;;53.50;29.10;;;;;;;-5.51;73.78;101524.94;2567512;28;20056;-81
2024/01/11 01:38:04;;;;;;;50.13;27.60;;;;;;;-5.51;73.77;101523.28;2568156;28;20401;-82
2024/01/11 01:39:18;;;;;;;55.57;29.23;;;;;;;-5.50;73.79;101519.06;2563060;28;20185;-82
2024/01/11 01:40:32;;;;;;;47.97;26.73;;;;;;;-5.50;73.73;101529.25;2562963;28;20310;-82
2024/01/11 01:41:46;;;;;;;53.27;32.47;;;;;;;-5.51;73.71;101530.03;2568110;28;20044;-81
2024/01/11 01:43:00;;;;;;;49.73;28.63;;;;;;;-5.51;74.00;101530.03;2568313;28;20657;-83
2024/01/11 01:44:14;;;;;;;54.37;30.17;;;;;;;-5.52;73.81;101535.91;2569392;28;20087;-81
2024/01/11 01:45:28;;;;;;;47.80;27.40;;;;;;;-5.52;73.93;101541.88;2569612;28;20348;-81
2024/01/11 01:46:42;;;;;;;51.83;29.13;;;;;;;-5.55;74.04;101541.66;2567828;28;20036;-83
2024/01/11 01:47:56;;;;;;;52.23;28.90;;;;;;;-5.55;74.16;101549.28;2569568;28;20278;-82
2024/01/11 01:49:11;;;;;;;50.33;29.17;;;;;;;-5.56;73.92;101547.50;2569659;28;20059;-83
2024/01/11 01:50:26;;;;;;;48.33;30.00;;;;;;;-5.56;74.15;101549.19;2565343;28;20310;-82
2024/01/11 01:51:40;;;;;;;54.07;30.00;;;;;;;-5.56;74.14;101544.09;2571302;28;20287;-82
2024/01/11 01:52:55;;;;;;;54.40;33.13;;;;;;;-5.57;74.20;101544.88;2563127;28;20914;-83
2024/01/11 01:54:09;;;;;;;49.93;29.40;;;;;;;-5.55;74.07;101556.00;2563765;28;20071;-82
2024/01/11 01:55:24;;;;;;;41.90;27.10;;;;;;;-5.56;74.16;101555.13;2571469;28;20374;-81
2024/01/11 01:56:37;;;;;;;48.90;28.60;;;;;;;-5.57;74.23;101553.38;2571531;28;20047;-83
2024/01/11 01:57:52;;;;;;;58.70;28.93;;;;;;;-5.58;74.35;101556.69;2571005;28;20366;-82
2024/01/11 01:59:06;;;;;;;51.80;28.23;;;;;;;-5.58;74.02;101553.25;2570784;28;20040;-81
2024/01/11 02:00:21;;;;;;;49.93;26.77;;;;;;;-5.57;74.36;101555.94;2571298;28;20306;-82
2024/01/11 02:01:34;;;;;;;50.30;28.43;;;;;;;-5.57;74.33;101560.13;2571744;28;20055;-83
2024/01/11 02:02:52;;;;;;;50.30;32.07;;;;;;;-5.55;74.47;101559.47;2570490;28;20844;-83
2024/01/11 02:04:05;;;;;;;53.20;29.60;;;;;;;-5.57;74.02;101561.00;2571670;28;20163;-83
2024/01/11 02:05:21;;;;;;;56.50;31.47;;;;;;;-5.57;74.32;101562.69;2568792;28;20302;-82
2024/01/11 02:06:35;;;;;;;49.47;27.70;;;;;;;-5.58;74.18;101560.88;2566344;28;20036;-82
2024/01/11 02:07:49;;;;;;;45.87;29.10;;;;;;;-5.58;74.25;101553.25;2570920;28;20282;-82
2024/01/11 02:09:03;;;;;;;54.73;31.13;;;;;;;-5.59;74.07;101554.94;2570651;28;20043;-81
2024/01/11 02:10:18;;;;;;;50.03;29.57;;;;;;;-5.59;74.31;101554.06;2564126;28;20309;-82
2024/01/11 02:11:31;;;;;;;55.63;33.43;;;;;;;-5.58;74.54;101553.25;2571293;28;20282;-81
2024/01/11 02:12:46;;;;;;;49.63;29.83;;;;;;;-5.59;74.33;101546.41;2571994;28;20395;-82
2024/01/11 02:14:00;;;;;;;54.97;31.90;;;;;;;-5.59;74.36;101548.97;2571483;28;20059;-82
2024/01/11 02:15:15;;;;;;;57.83;29.10;;;;;;;-5.60;74.55;101545.53;2571431;28;20298;-82
2024/01/11 02:16:29;;;;;;;49.17;28.27;;;;;;;-5.60;74.57;101547.19;2571390;28;20043;-82
2024/01/11 02:17:43;;;;;;;52.43;29.37;;;;;;;-5.59;74.61;101548.97;2572558;28;20303;-81
2024/01/11 02:18:57;;;;;;;59.80;30.70;;;;;;;-5.60;74.33;101548.09;2562975;28;20051;-82
2024/01/11 02:20:11;;;;;;;59.03;33.07;;;;;;;-5.61;74.58;101550.50;2571709;28;20837;-83
2024/01/11 02:21:28;;;;;;;45.77;29.90;;;;;;;-5.61;74.47;101555.59;2569532;28;20040;-83
2024/01/11 02:22:46;;;;;;;54.83;31.90;;;;;;;-5.63;74.57;101554.59;2570405;28;20298;-83
2024/01/11 02:24:05;;;;;;;54.70;32.43;;;;;;;-5.63;74.68;101552.06;2567747;28;20267;-83
2024/01/11 02:25:19;;;;;;;53.93;29.13;;;;;;;-5.66;74.68;101554.38;2571187;28;20313;-82
2024/01/11 02:26:34;;;;;;;49.73;29.63;;;;;;;-5.66;74.40;101556.94;2571205;28;20346;-80
2024/01/11 02:27:48;;;;;;;49.77;28.50;;;;;;;-5.68;74.31;101554.25;2570760;28;20040;-82
2024/01/11 02:29:02;;;;;;;50.80;26.93;;;;;;;-5.68;74.61;101556.81;2571453;28;20394;-82
2024/01/11 02:30:16;;;;;;;48.67;29.73;;;;;;;-5.70;74.49;101551.63;2571668;28;20104;-82
2024/01/11 02:31:31;;;;;;;53.47;31.43;;;;;;;-5.68;74.87;101549.19;2566886;28;20283;-83
2024/01/11 02:32:46;;;;;;;49.77;28.57;;;;;;;-5.69;74.70;101547.41;2568478;28;20286;-83
2024/01/11 02:34:00;;;;;;;49.50;29.03;;;;;;;-5.71;74.82;101547.31;2574300;28;20313;-81
2024/01/11 02:35:14;;;;;;;48.93;28.60;;;;;;;-5.71;74.60;101549.84;2573850;28;20278;-82
2024/01/11 02:36:29;;;;;;;54.10;29.50;;;;;;;-5.72;74.85;101543.00;2570722;28;20313;-82
2024/01/11 02:37:43;;;;;;;43.53;26.57;;;;;;;-5.73;74.78;101551.41;2571172;28;20290;-83
2024/01/11 02:38:57;;;;;;;53.43;30.73;;;;;;;-5.74;74.66;101554.72;2569760;28;20309;-83
2024/01/11 02:40:13;;;;;;;49.07;30.40;;;;;;;-5.75;74.69;101547.00;2571516;28;20294;-82
2024/01/11 02:41:27;;;;;;;51.83;29.30;;;;;;;-5.75;74.78;101550.41;2571384;28;20716;-82
2024/01/11 02:42:41;;;;;;;51.17;31.60;;;;;;;-5.77;74.65;101546.88;2570913;28;20396;-83
2024/01/11 02:43:56;;;;;;;52.07;29.63;;;;;;;-5.79;74.77;101550.97;2570427;28;20807;-82
2024/01/11 02:45:10;;;;;;;50.33;28.83;;;;;;;-5.80;75.04;101551.75;2570708;28;20043;-82
2024/01/11 02:46:25;;;;;;;51.80;29.27;;;;;;;-5.82;74.83;101553.28;2566990;28;20307;-82
2024/01/11 02:47:38;;;;;;;54.57;31.00;;;;;;;-5.82;75.04;101555.84;2565349;28;20282;-82
2024/01/11 02:48:53;;;;;;;56.13;31.27;;;;;;;-5.81;74.91;101546.53;2570372;28;20304;-82
2024/01/11 02:50:07;;;;;;;57.20;31.63;;;;;;;-5.81;75.17;101551.63;2569933;28;20112;-83
2024/01/11 02:51:22;;;;;;;52.30;32.17;;;;;;;-5.81;74.98;101541.47;2566978;28;20305;-83
2024/01/11 02:52:35;;;;;;;49.53;28.93;;;;;;;-5.82;74.84;101545.66;2565074;28;20304;-81
2024/01/11 02:53:49;;;;;;;48.47;31.50;;;;;;;-5.81;75.10;101549.09;2570728;28;20310;-82
2024/01/11 02:55:03;;;;;;;47.77;29.33;;;;;;;-5.82;74.98;101544.78;2570234;28;20055;-82
2024/01/11 02:56:19;;;;;;;51.90;29.80;;;;;;;-5.81;75.04;101544.00;2570129;28;20314;-83
2024/01/11 02:57:33;;;;;;;47.93;28.47;;;;;;;-5.81;75.11;101547.41;2565673;28;20656;-82
2024/01/11 02:58:47;;;;;;;51.70;29.63;;;;;;;-5.80;74.91;101533.06;2566221;28;20362;-83
2024/01/11 03:00:01;;;;;;;49.67;30.20;;;;;;;-5.80;75.07;101536.50;2569726;28;20039;-83
2024/01/11 03:01:15;;;;;;;49.37;28.50;;;;;;;-5.79;74.90;101534.84;2571385;28;20310;-82
2024/01/11 03:02:29;;;;;;;45.80;26.90;;;;;;;-5.80;75.12;101533.94;2570570;28;20105;-82
2024/01/11 03:03:43;;;;;;;53.63;29.57;;;;;;;-5.80;75.12;101536.50;2569482;28;20769;-83
2024/01/11 03:04:57;;;;;;;50.87;31.83;;;;;;;-5.81;75.20;101542.34;2570277;28;20055;-82
2024/01/11 03:06:11;;;;;;;53.93;30.23;;;;;;;-5.82;75.17;101543.13;2568163;28;20306;-82
2024/01/11 03:07:25;;;;;;;55.57;30.87;;;;;;;-5.82;75.03;101534.63;2559864;28;20533;-83
2024/01/11 03:08:39;;;;;;;50.17;30.63;;;;;;;-5.85;75.15;101540.38;2564915;28;20310;-82
2024/01/11 03:09:53;;;;;;;48.00;29.80;;;;;;;-5.86;75.12;101528.44;2563159;28;20050;-82
2024/01/11 03:11:07;;;;;;;45.30;29.50;;;;;;;-5.86;75.17;101528.44;2568749;28;20341;-82
2024/01/11 03:12:22;;;;;;;47.30;29.70;;;;;;;-5.87;75.18;101535.94;2570728;28;20286;-81
2024/01/11 03:13:37;;;;;;;46.90;29.63;;;;;;;-5.88;75.13;101531.66;2569783;28;20306;-82
2024/01/11 03:14:50;;;;;;;57.33;31.70;;;;;;;-5.89;75.26;101529.88;2570283;28;20301;-82
2024/01/11 03:16:06;;;;;;;50.00;31.03;;;;;;;-5.89;75.12;101532.41;2569026;28;20310;-83
2024/01/11 03:17:19;;;;;;;46.80;28.60;;;;;;;-5.92;75.17;101539.03;2563289;28;20049;-82
2024/01/11 03:18:34;;;;;;;51.43;28.47;;;;;;;-5.93;75.14;101526.22;2569731;28;20316;-83
2024/01/11 03:19:47;;;;;;;51.43;29.40;;;;;;;-5.93;75.38;101521.16;2569994;28;20393;-82
2024/01/11 03:21:02;;;;;;;47.93;29.37;;;;;;;-5.94;75.34;101529.56;2569544;28;20337;-81
2024/01/11 03:22:15;;;;;;;53.80;27.93;;;;;;;-5.96;75.35;101519.31;2570219;28;20044;-82
2024/01/11 03:23:29;;;;;;;43.67;27.80;;;;;;;-5.96;75.26;101524.38;2569572;28;20381;-81
2024/01/11 03:24:43;;;;;;;50.10;31.60;;;;;;;-5.98;75.30;101527.59;2570712;28;20048;-82
2024/01/11 03:25:57;;;;;;;53.03;28.43;;;;;;;-5.99;75.18;101526.72;2561780;28;20314;-82
2024/01/11 03:27:11;;;;;;;48.63;27.63;;;;;;;-6.01;75.15;101529.91;2559638;28;20421;-82
2024/01/11 03:28:26;;;;;;;53.97;31.67;;;;;;;-6.03;75.16;101524.72;2563152;28;20380;-82
2024/01/11 03:29:40;;;;;;;47.17;31.00;;;;;;;-6.04;75.41;101522.06;2570080;28;20059;-81
2024/01/11 03:30:54;;;;;;;51.77;29.30;;;;;;;-6.06;75.15;101521.09;2562615;28;20672;-83
2024/01/11 03:32:08;;;;;;;49.67;28.37;;;;;;;-6.06;75.33;101534.66;2568989;28;20054;-82
2024/01/11 03:33:22;;;;;;;50.57;28.90;;;;;;;-6.08;75.26;101526.03;2567565;28;20311;-83
2024/01/11 03:34:35;;;;;;;52.47;28.20;;;;;;;-6.08;75.51;101526.03;2564294;28;20048;-82
2024/01/11 03:35:50;;;;;;;53.27;32.40;;;;;;;-6.09;75.49;101526.81;2570461;28;20296;-82
2024/01/11 03:37:03;;;;;;;53.17;30.70;;;;;;;-6.10;75.33;101527.59;2568436;28;20047;-82
2024/01/11 03:38:18;;;;;;;49.47;31.20;;;;;;;-6.10;75.55;101522.50;2561914;28;20302;-83
2024/01/11 03:39:31;;;;;;;51.40;28.83;;;;;;;-6.11;75.16;101536.00;2564365;28;20051;-82
2024/01/11 03:40:46;;;;;;;53.70;33.50;;;;;;;-6.12;75.37;101533.31;2560321;28;20309;-82
2024/01/11 03:41:59;;;;;;;43.97;29.93;;;;;;;-6.13;75.33;101536.66;2567577;28;20051;-82
2024/01/11 03:43:13;;;;;;;45.40;29.17;;;;;;;-6.13;75.33;101529.03;2559282;28;20282;-83
2024/01/11 03:44:28;;;;;;;49.43;30.57;;;;;;;-6.15;75.38;101527.25;2559445;28;20056;-82
2024/01/11 03:45:43;;;;;;;60.13;31.93;;;;;;;-6.13;75.45;101531.56;2565151;28;20389;-82
2024/01/11 03:46:56;;;;;;;50.03;29.47;;;;;;;-6.16;75.45;101533.09;2569198;28;20301;-83
2024/01/11 03:48:10;;;;;;;46.23;28.93;;;;;;;-6.18;75.59;101528.69;2569254;28;20330;-83
2024/01/11 03:49:24;;;;;;;46.20;29.67;;;;;;;-6.18;75.46;101524.47;2569895;28;20074;-83
2024/01/11 03:50:38;;;;;;;53.83;30.43;;;;;;;-6.17;75.59;101525.34;2565088;28;20302;-82
2024/01/11 03:51:52;;;;;;;47.37;28.33;;;;;;;-6.18;75.45;101528.69;2566087;28;20036;-82
2024/01/11 03:53:06;;;;;;;44.93;26.90;;;;;;;-6.20;75.40;101526.03;2568469;28;20720;-80
2024/01/11 03:54:20;;;;;;;45.53;29.27;;;;;;;-6.19;75.49;101532.88;2562001;28;20490;-82
2024/01/11 03:55:34;;;;;;;55.83;28.57;;;;;;;-6.21;75.28;101529.34;2567975;28;20302;-81
2024/01/11 03:56:48;;;;;;;53.70;31.57;;;;;;;-6.19;75.51;101526.94;2569588;28;20039;-82
2024/01/11 03:58:02;;;;;;;46.73;30.03;;;;;;;-6.19;75.68;101534.56;2569212;28;20316;-81
2024/01/11 03:59:16;;;;;;;49.53;28.20;;;;;;;-6.19;75.58;101522.72;2569738;28;20032;-82
2024/01/11 04:00:33;;;;;;;47.40;26.83;;;;;;;-6.20;75.59;101520.94;2569372;28;20309;-82
2024/01/11 04:01:46;;;;;;;57.97;33.47;;;;;;;-6.22;75.70;101517.44;2569472;28;20365;-82
2024/01/11 04:03:01;;;;;;;47.80;30.40;;;;;;;-6.21;75.56;101526.81;2559937;28;20306;-83
2024/01/11 04:04:15;;;;;;;51.23;29.90;;;;;;;-6.20;75.74;101525.16;2569895;28;20081;-83
2024/01/11 04:05:29;;;;;;;44.73;28.07;;;;;;;-6.19;75.65;101521.84;2569457;28;20395;-83
2024/01/11 04:06:43;;;;;;;48.90;28.70;;;;;;;-6.19;75.47;101524.41;2569904;28;20048;-82
2024/01/11 04:07:57;;;;;;;45.33;28.83;;;;;;;-6.20;75.97;101523.47;2561402;28;20310;-83
2024/01/11 04:09:11;;;;;;;46.37;30.83;;;;;;;-6.20;75.55;101515.88;2569823;28;20071;-83
2024/01/11 04:10:25;;;;;;;51.43;30.60;;;;;;;-6.19;75.64;101519.31;2569064;28;20308;-82
2024/01/11 04:11:38;;;;;;;46.20;28.00;;;;;;;-6.19;75.65;101532.00;2562835;28;20044;-82
2024/01/11 04:12:53;;;;;;;50.67;28.27;;;;;;;-6.20;75.54;101523.47;2558199;28;20496;-81
2024/01/11 04:14:06;;;;;;;59.63;33.30;;;;;;;-6.20;75.50;101523.47;2566054;28;20051;-83
2024/01/11 04:15:21;;;;;;;48.27;30.43;;;;;;;-6.21;75.62;101524.28;2564777;28;20797;-82
2024/01/11 04:16:39;;;;;;;49.67;30.07;;;;;;;-6.21;75.58;101519.19;2561693;28;20051;-80
2024/01/11 04:17:54;;;;;;;55.23;30.40;;;;;;;-6.21;75.66;101526.81;2564750;28;20306;-83
2024/01/11 04:19:07;;;;;;;47.67;29.37;;;;;;;-6.22;75.68;101522.50;2567605;28;20304;-83
2024/01/11 04:20:23;;;;;;;56.73;31.20;;;;;;;-6.22;75.48;101514.91;2565292;28;20717;-82
2024/01/11 04:21:38;;;;;;;52.47;30.00;;;;;;;-6.23;75.55;101519.84;2562545;28;20135;-83
2024/01/11 04:22:53;;;;;;;57.60;30.13;;;;;;;-6.23;75.55;101517.31;2567265;28;20318;-82
2024/01/11 04:24:06;;;;;;;47.40;26.53;;;;;;;-6.24;75.87;101518.09;2567146;28;20305;-83
2024/01/11 04:25:21;;;;;;;46.77;29.83;;;;;;;-6.24;75.69;101516.44;2567828;28;20723;-81
2024/01/11 04:26:35;;;;;;;45.97;27.57;;;;;;;-6.23;75.73;101514.78;2566611;28;20044;-82
2024/01/11 04:27:49;;;;;;;38.60;27.63;;;;;;;-6.23;75.68;101519.84;2560995;28;20308;-83
2024/01/11 04:29:03;;;;;;;50.73;30.57;;;;;;;-6.24;76.07;101511.34;2564593;28;20440;-82
2024/01/11 04:30:17;;;;;;;50.53;29.67;;;;;;;-6.24;75.64;101518.97;2557284;28;20302;-83
2024/01/11 04:31:31;;;;;;;49.83;28.37;;;;;;;-6.26;75.60;101514.56;2559605;28;20126;-83
2024/01/11 04:32:47;;;;;;;42.97;26.07;;;;;;;-6.25;75.87;101518.84;2566796;28;20795;-84
2024/01/11 04:34:00;;;;;;;51.87;30.17;;;;;;;-6.27;75.81;101520.38;2567297;28;20052;-82
2024/01/11 04:35:15;;;;;;;55.70;30.33;;;;;;;-6.27;75.63;101522.94;2566923;28;20284;-84
2024/01/11 04:36:29;;;;;;;40.33;25.20;;;;;;;-6.29;75.51;101520.28;2567372;28;20044;-83
2024/01/11 04:37:42;;;;;;;52.27;28.87;;;;;;;-6.28;75.76;101521.16;2567769;28;20331;-83
2024/01/11 04:38:57;;;;;;;50.90;28.90;;;;;;;-6.28;75.90;101526.25;2559203;28;20298;-81
2024/01/11 04:40:11;;;;;;;52.07;33.03;;;;;;;-6.29;75.76;101519.41;2566427;28;20051;-83
2024/01/11 04:41:25;;;;;;;53.23;28.93;;;;;;;-6.30;75.86;101526.13;2566911;28;20324;-82
2024/01/11 04:42:38;;;;;;;54.33;30.23;;;;;;;-6.30;75.45;101523.59;2566884;28;20106;-81
2024/01/11 04:43:53;;;;;;;46.67;29.83;;;;;;;-6.31;75.87;101519.28;2567069;28;20285;-81
2024/01/11 04:45:07;;;;;;;49.00;29.60;;;;;;;-6.32;75.85;101515.00;2566444;28;20048;-83
2024/01/11 04:46:22;;;;;;;42.67;26.43;;;;;;;-6.33;75.59;101520.81;2559231;28;20675;-83
2024/01/11 04:47:37;;;;;;;50.43;29.07;;;;;;;-6.33;75.98;101527.56;2565840;28;20040;-84
2024/01/11 04:48:53;;;;;;;51.73;29.43;;;;;;;-6.34;75.81;101526.69;2566348;28;20302;-82
2024/01/11 04:50:07;;;;;;;56.03;31.53;;;;;;;-6.36;76.00;101528.22;2564729;28;20306;-82
2024/01/11 04:51:22;;;;;;;53.90;31.23;;;;;;;-6.34;75.93;101525.81;2557938;28;20393;-83
2024/01/11 04:52:35;;;;;;;42.97;27.93;;;;;;;-6.34;75.80;101530.91;2566004;28;20051;-82
2024/01/11 04:53:50;;;;;;;44.23;28.00;;;;;;;-6.35;75.72;101527.44;2566502;28;20316;-81
2024/01/11 04:55:05;;;;;;;48.03;29.40;;;;;;;-6.36;75.88;101533.31;2564326;28;20086;-82
2024/01/11 04:56:19;;;;;;;43.30;27.80;;;;;;;-6.36;75.87;101538.38;2565143;28;20355;-83
2024/01/11 04:57:33;;;;;;;50.50;28.93;;;;;;;-6.36;75.91;101533.31;2565145;28;20297;-81
2024/01/11 04:58:48;;;;;;;43.70;27.90;;;;;;;-6.34;75.96;101541.94;2565596;28;20309;-83
2024/01/11 05:00:01;;;;;;;51.53;28.93;;;;;;;-6.35;76.06;101529.97;2566519;28;20059;-83
2024/01/11 05:01:17;;;;;;;48.13;31.87;;;;;;;-6.33;76.11;101537.72;2566857;28;20305;-83
2024/01/11 05:02:30;;;;;;;48.70;28.40;;;;;;;-6.34;75.78;101535.97;2567545;28;20044;-81
2024/01/11 05:03:46;;;;;;;48.77;28.90;;;;;;;-6.34;75.91;101535.97;2566589;28;20654;-82
2024/01/11 05:05:01;;;;;;;44.27;27.57;;;;;;;-6.32;75.95;101535.31;2567102;28;20051;-83
2024/01/11 05:06:16;;;;;;;51.83;29.00;;;;;;;-6.32;75.80;101537.84;2567212;28;20378;-83
2024/01/11 05:07:30;;;;;;;48.03;28.90;;;;;;;-6.31;76.07;101532.00;2566791;28;20293;-83
2024/01/11 05:08:44;;;;;;;46.23;26.97;;;;;;;-6.30;76.05;101536.28;2567465;28;20302;-81
2024/01/11 05:09:58;;;;;;;53.93;30.67;;;;;;;-6.27;75.94;101538.16;2567343;28;20048;-83
2024/01/11 05:11:17;;;;;;;45.73;28.07;;;;;;;-6.26;76.00;101530.66;2569493;28;20281;-83
2024/01/11 05:12:30;;;;;;;47.57;29.50;;;;;;;-6.25;75.81;101536.63;2569388;28;20040;-83
2024/01/11 05:13:47;;;;;;;47.93;27.37;;;;;;;-6.24;75.75;101538.41;2573860;28;20290;-79
2024/01/11 05:15:00;;;;;;;48.30;26.83;;;;;;;-6.24;75.99;101544.38;2569485;28;20105;-81
2024/01/11 05:16:20;;;;;;;56.70;29.17;;;;;;;-6.24;75.87;101546.03;2566376;28;21119;-83
2024/01/11 05:17:33;;;;;;;49.87;30.40;;;;;;;-6.25;75.85;101545.13;2561862;28;20048;-82
2024/01/11 05:18:47;;;;;;;45.97;26.07;;;;;;;-6.24;75.84;101546.03;2566855;28;20309;-83
2024/01/11 05:20:03;;;;;;;46.10;25.33;;;;;;;-6.24;75.92;101546.03;2568050;28;20051;-82
2024/01/11 05:21:17;;;;;;;49.50;29.90;;;;;;;-6.25;76.06;101544.25;2567540;28;20306;-84
2024/01/11 05:22:30;;;;;;;42.67;25.77;;;;;;;-6.26;75.96;101538.28;2568038;28;20309;-83
2024/01/11 05:23:45;;;;;;;46.07;26.80;;;;;;;-6.24;75.91;101549.47;2568737;28;20293;-83
2024/01/11 05:24:58;;;;;;;52.00;27.90;;;;;;;-6.23;75.75;101545.25;2563452;28;20402;-82
2024/01/11 05:26:14;;;;;;;44.50;28.27;;;;;;;-6.22;75.89;101547.91;2568845;28;20308;-83
2024/01/11 05:27:28;;;;;;;48.80;27.57;;;;;;;-6.21;76.10;101548.78;2570132;28;20044;-83
2024/01/11 05:28:42;;;;;;;46.47;27.80;;;;;;;-6.21;76.00;101549.69;2565999;28;20313;-81
2024/01/11 05:29:56;;;;;;;48.60;28.93;;;;;;;-6.19;75.81;101553.22;2567693;28;20127;-83
2024/01/11 05:31:11;;;;;;;46.37;28.63;;;;;;;-6.18;75.60;101554.97;2568922;28;20291;-82
2024/01/11 05:32:25;;;;;;;47.37;27.40;;;;;;;-6.18;75.92;101549.88;2567610;28;20048;-81
2024/01/11 05:33:39;;;;;;;45.80;28.33;;;;;;;-6.18;75.82;101560.06;2563634;28;20308;-83
2024/01/11 05:34:53;;;;;;;44.93;26.40;;;;;;;-6.18;76.06;101560.06;2569269;28;20318;-84
2024/01/11 05:36:09;;;;;;;56.13;31.60;;;;;;;-6.17;76.00;101566.00;2569536;28;20332;-83
2024/01/11 05:37:22;;;;;;;39.97;25.67;;;;;;;-6.16;76.06;101566.13;2561339;28;20052;-80